TimeMST,TemperatureF,Dew PointF,Humidity,Sea Level PressureIn,VisibilityMPH,Wind Direction,Wind SpeedMPH,Gust SpeedMPH,PrecipitationIn,Events,Conditions,WindDirDegrees,DateUTC
12:53 AM,23.0,16.0,74,30.32,-9999.0,SW,11.5,-,N/A,,Clear,230,2013-02-02 07:53:00
1:53 AM,21.0,14.0,74,30.32,-9999.0,WSW,9.2,-,N/A,,Clear,240,2013-02-02 08:53:00
2:53 AM,21.0,12.9,71,30.33,-9999.0,WSW,11.5,-,N/A,,Clear,240,2013-02-02 09:53:00
3:53 AM,23.0,12.9,65,30.32,-9999.0,SW,10.4,-,N/A,,Clear,230,2013-02-02 10:53:00
4:53 AM,23.0,12.2,63,30.24,-9999.0,WSW,12.7,-,N/A,,Clear,240,2013-02-02 11:53:00
5:53 AM,21.9,12.9,68,30.35,10.0,SW,12.7,-,N/A,,Clear,220,2013-02-02 12:53:00
6:53 AM,23.0,14.0,68,30.35,10.0,SW,15.0,-,N/A,,Clear,220,2013-02-02 13:53:00
7:53 AM,24.1,14.0,65,30.36,10.0,SW,20.7,26.5,N/A,,Clear,220,2013-02-02 14:53:00
8:53 AM,28.0,15.1,58,30.35,10.0,SW,20.7,27.6,N/A,,Clear,220,2013-02-02 15:53:00
9:53 AM,32.0,16.0,52,30.35,10.0,SW,23.0,29.9,N/A,,Clear,220,2013-02-02 16:53:00
10:53 AM,36.0,16.0,44,30.37,10.0,SW,21.9,29.9,N/A,,Clear,220,2013-02-02 17:53:00
11:53 AM,41.0,17.1,38,30.35,10.0,SW,15.0,26.5,N/A,,Clear,220,2013-02-02 18:53:00
12:25 PM,44.6,12.2,27,30.28,10.0,West,16.1,21.9,N/A,,Clear,270,2013-02-02 19:25:00
12:53 PM,46.0,12.0,25,30.31,10.0,West,15.0,21.9,N/A,,Clear,260,2013-02-02 19:53:00
1:53 PM,48.0,12.0,24,30.30,10.0,West,10.4,-,N/A,,Clear,280,2013-02-02 20:53:00
2:53 PM,46.9,10.0,22,30.30,10.0,WNW,9.2,-,N/A,,Clear,300,2013-02-02 21:53:00
3:53 PM,46.0,10.9,24,30.29,10.0,WNW,11.5,-,N/A,,Clear,300,2013-02-02 22:53:00
4:53 PM,39.9,12.9,33,30.30,10.0,NW,6.9,-,N/A,,Clear,310,2013-02-02 23:53:00
5:53 PM,30.0,12.9,49,30.36,10.0,SSW,10.4,-,N/A,,Clear,210,2013-02-03 00:53:00
6:53 PM,30.9,15.1,52,30.34,10.0,SSW,3.5,-,N/A,,Clear,200,2013-02-03 01:53:00
7:53 PM,28.9,18.0,64,30.34,10.0,West,8.1,-,N/A,,Clear,280,2013-02-03 02:53:00
8:53 PM,28.0,18.0,66,30.32,10.0,SW,11.5,-,N/A,,Clear,230,2013-02-03 03:53:00
9:53 PM,30.0,18.0,61,30.28,10.0,WSW,10.4,-,N/A,,Clear,240,2013-02-03 04:53:00
10:53 PM,28.9,17.1,61,30.26,10.0,WSW,6.9,-,N/A,,Clear,240,2013-02-03 05:53:00
11:53 PM,30.9,18.0,59,30.23,10.0,SW,11.5,-,N/A,,Clear,230,2013-02-03 06:53:00